Flight Track Log - Related Links

Times and Time Zones

All times are in EDT time to prevent confusion due to time zone crossing. See the UPS2054 flight status page for this flight to view local times or setup timezone preferences in your user account.

Time Position Orientation Groundspeed Altitude Reporting Facility
EDT Latitude Longitude Course Direction KTS MPH feet Rate Location/Type
Thu 04:56:49 PM 38.1630 -85.7410 180° South 182 209 600  Level FlightAware ADS-B
Thu 04:57:13 PM 38.1440 -85.7360 168° South 182 209 1,700 2,250 Climbing FlightAware ADS-B
Thu 04:57:37 PM 38.1210 -85.7320 172° South 214 246 2,400 1,950 Climbing FlightAware ADS-B
Thu 04:57:53 PM 38.1050 -85.7320 180° South 227 261 3,000 2,400 Climbing FlightAware ADS-B
Thu 04:58:17 PM 38.0800 -85.7240 166° South 241 277 4,000 2,516 Climbing FlightAware ADS-B
Thu 04:58:24 PM 38.0740 -85.7190 147° Southeast 242 278 4,300 3,000 Climbing FlightAware ADS-B
Thu 04:58:33 PM 38.0670 -85.7080 129° Southeast 244 281 4,800 3,231 Climbing FlightAware ADS-B
Thu 04:58:37 PM 38.0650 -85.7030 117° Southeast 244 281 5,000 2,500 Climbing FlightAware ADS-B
Thu 04:58:45 PM 38.0630 -85.6930 104° East 249 287 5,300 2,000 Climbing FlightAware ADS-B
Thu 04:58:55 PM 38.0620 -85.6810 96° East 255 293 5,600 2,813 Climbing FlightAware ADS-B
Thu 04:59:17 PM 38.0690 -85.6460 76° East 261 300 6,800 3,188 Climbing FlightAware ADS-B
Thu 04:59:27 PM 38.0720 -85.6310 76° East 268 308 7,300 2,769 Climbing FlightAware ADS-B
Thu 04:59:43 PM 38.0730 -85.6050 87° East 276 318 8,000 2,833 Climbing FlightAware ADS-B
Thu 05:00:03 PM 38.0740 -85.5720 88° East 282 325 9,000 2,647 Climbing FlightAware ADS-B
Thu 05:00:17 PM 38.0740 -85.5490 90° East 287 330 9,500 1,286 Climbing FlightAware ADS-B
Thu 05:00:45 PM 38.0740 -85.5030 90° East 293 337 9,900 1,000 Climbing FlightAware ADS-B
Thu 05:01:17 PM 38.0730 -85.4450 91° East 308 354 10,500 1,437 Climbing FlightAware ADS-B
Thu 05:01:56 PM 38.0730 -85.3710 90° East 348 400 11,600 2,486 Climbing FlightAware ADS-B
Thu 05:02:27 PM 38.0710 -85.3040 92° East 363 418 13,400 3,304 Climbing FlightAware ADS-B
Thu 05:03:05 PM 38.0630 -85.2230 97° East 381 438 15,400 3,167 Climbing FlightAware ADS-B
Thu 05:03:39 PM 38.0520 -85.1470 100° East 391 450 17,200 3,171 Climbing FlightAware ADS-B
Thu 05:04:15 PM 38.0410 -85.0630 99° East 400 460 19,100 3,000 Climbing FlightAware ADS-B
Thu 05:04:49 PM 38.0310 -84.9860 99° East 410 472 20,700 2,657 Climbing FlightAware ADS-B
Thu 05:05:25 PM 38.0210 -84.9030 99° East 420 483 22,200 2,571 Climbing FlightAware ADS-B
Thu 05:05:59 PM 38.0100 -84.8150 99° East 430 495 23,700 2,471 Climbing FlightAware ADS-B
Thu 05:06:33 PM 38.0000 -84.7300 98° East 441 507 25,000 2,143 Climbing FlightAware ADS-B
Thu 05:07:09 PM 37.9880 -84.6360 99° East 455 524 26,200 2,083 Climbing FlightAware ADS-B
Thu 05:07:45 PM 37.9750 -84.5420 100° East 464 534 27,500 1,929 Climbing FlightAware ADS-B
Thu 05:08:33 PM 37.9760 -84.4120 89° East 460 529 28,900 1,034 Climbing FlightAware ADS-B
Thu 05:09:12 PM 37.9910 -84.3070 80° East 461 531 29,000 80 Climbing FlightAware ADS-B
Thu 05:09:48 PM 38.0060 -84.2130 79° East 458 527 29,000  Level FlightAware ADS-B
Thu 05:10:24 PM 38.0210 -84.1170 79° East 457 526 29,000 904 Level FlightAware ADS-B
Thu 05:11:01 PM 38.0360 -84.0210 79° East 462 532 30,100 2,118 Climbing FlightAware ADS-B
Thu 05:11:32 PM 38.0480 -83.9380 80° East 461 531 31,400 2,418 Climbing FlightAware ADS-B
Thu 05:12:08 PM 38.0620 -83.8430 79° East 455 524 32,800 2,174 Climbing FlightAware ADS-B
Thu 05:12:41 PM 38.0750 -83.7580 79° East 454 522 33,900 1,565 Climbing FlightAware ADS-B
Thu 05:13:17 PM 38.0890 -83.6630 79° East 464 534 34,600 1,324 Climbing FlightAware ADS-B
Thu 05:13:49 PM 38.1010 -83.5760 80° East 464 534 35,400 1,629 Climbing FlightAware ADS-B
Thu 05:14:27 PM 38.1150 -83.4800 79° East 458 527 36,500 1,297 Climbing FlightAware ADS-B
Thu 05:15:03 PM 38.1290 -83.3820 80° East 459 528 37,000 441 Climbing FlightAware ADS-B
Thu 05:15:35 PM 38.1420 -83.2930 79° East 459 528 37,000  Level FlightAware ADS-B
Thu 05:16:11 PM 38.1550 -83.2010 80° East 460 529 37,000  Level FlightAware ADS-B
Thu 05:16:24 PM 38.1606 -83.1636 79° East 460 529 37,000  Level FlightAware ADS-B
Thu 05:16:57 PM 38.1729 -83.0767 80° East 461 531 37,000  Level FlightAware ADS-B
Thu 05:17:29 PM 38.1920 -82.9953 73° East 459 528 37,000  Level FlightAware ADS-B
Thu 05:17:39 PM 38.2007 -82.9719 65° Northeast 449 517 37,000  Level FlightAware ADS-B
Thu 05:18:31 PM 38.2600 -82.8620 55° Northeast 446 513 37,000  Level FlightAware ADS-B
Thu 05:19:07 PM 38.3060 -82.7860 52° Northeast 449 517 37,000  Level FlightAware ADS-B
Thu 05:19:43 PM 38.3510 -82.7090 53° Northeast 449 517 37,000  Level FlightAware ADS-B
Thu 05:20:16 PM 38.3930 -82.6400 52° Northeast 449 517 37,000  Level FlightAware ADS-B
Thu 05:20:50 PM 38.4360 -82.5680 53° Northeast 449 517 37,000  Level FlightAware ADS-B
Thu 05:21:26 PM 38.4800 -82.4950 52° Northeast 450 518 37,000  Level FlightAware ADS-B
Thu 05:22:02 PM 38.5260 -82.4160 53° Northeast 452 520 37,000  Level FlightAware ADS-B
Thu 05:22:37 PM 38.5710 -82.3410 52° Northeast 452 520 37,000  Level FlightAware ADS-B
Thu 05:23:11 PM 38.6130 -82.2690 53° Northeast 453 521 37,000  Level FlightAware ADS-B
Thu 05:23:47 PM 38.6580 -82.1930 53° Northeast 455 524 37,000  Level FlightAware ADS-B
Thu 05:24:19 PM 38.6990 -82.1240 53° Northeast 455 524 37,000  Level FlightAware ADS-B
Thu 05:24:57 PM 38.7470 -82.0400 54° Northeast 456 525 37,000  Level FlightAware ADS-B
Thu 05:25:33 PM 38.7920 -81.9610 54° Northeast 457 526 37,000  Level FlightAware ADS-B
Thu 05:26:08 PM 38.8350 -81.8860 54° Northeast 457 526 37,000  Level FlightAware ADS-B
Thu 05:26:41 PM 38.8770 -81.8120 54° Northeast 457 526 37,000  Level FlightAware ADS-B
Thu 05:27:19 PM 38.9240 -81.7290 54° Northeast 456 525 37,000  Level FlightAware ADS-B
Thu 05:27:50 PM 38.9610 -81.6620 55° Northeast 457 526 37,000  Level FlightAware ADS-B
Thu 05:28:27 PM 39.0050 -81.5850 54° Northeast 455 524 37,000  Level FlightAware ADS-B
Thu 05:29:03 PM 39.0520 -81.5020 54° Northeast 454 522 37,000  Level FlightAware ADS-B
Thu 05:29:35 PM 39.0900 -81.4330 55° Northeast 452 520 37,000  Level FlightAware ADS-B
Thu 05:30:12 PM 39.1340 -81.3550 54° Northeast 450 518 37,000  Level FlightAware ADS-B
Thu 05:30:48 PM 39.1800 -81.2730 54° Northeast 447 514 37,000  Level FlightAware ADS-B
Thu 05:31:20 PM 39.2180 -81.2030 55° Northeast 445 512 37,000  Level FlightAware ADS-B
Thu 05:31:56 PM 39.2610 -81.1260 54° Northeast 443 510 37,000  Level FlightAware ADS-B
Thu 05:32:39 PM 39.3120 -81.0350 54° Northeast 439 505 37,000  Level FlightAware ADS-B
Thu 05:33:14 PM 39.3530 -80.9610 54° Northeast 437 503 37,000  Level FlightAware ADS-B
Thu 05:33:52 PM 39.3930 -80.8880 55° Northeast 437 503 37,000  Level FlightAware ADS-B
Thu 05:34:22 PM 39.4310 -80.8190 54° Northeast 434 499 37,000  Level FlightAware ADS-B
Thu 05:34:59 PM 39.4750 -80.7380 55° Northeast 433 498 37,000  Level FlightAware ADS-B
Thu 05:35:31 PM 39.5130 -80.6700 54° Northeast 433 498 37,000  Level FlightAware ADS-B
Thu 05:36:09 PM 39.5560 -80.5900 55° Northeast 433 498 37,000  Level FlightAware ADS-B
Thu 05:36:43 PM 39.5940 -80.5210 54° Northeast 432 497 37,000  Level FlightAware ADS-B
Thu 05:37:19 PM 39.6370 -80.4410 55° Northeast 432 497 37,000  Level FlightAware ADS-B
Thu 05:37:55 PM 39.6780 -80.3660 55° Northeast 432 497 37,000  Level FlightAware ADS-B
Thu 05:38:20 PM 39.7000 -80.3080 64° Northeast 438 504 37,000  Level FlightAware ADS-B
Thu 05:39:07 PM 39.7300 -80.1930 71° East 439 505 37,000  Level FlightAware ADS-B
Thu 05:39:44 PM 39.7570 -80.0990 69° East 437 503 37,000  Level FlightAware ADS-B
Thu 05:40:16 PM 39.7890 -80.0260 60° Northeast 434 499 37,000  Level FlightAware ADS-B
Thu 05:40:52 PM 39.8320 -79.9510 53° Northeast 435 501 37,000  Level FlightAware ADS-B
Thu 05:41:28 PM 39.8740 -79.8750 54° Northeast 435 501 37,000  Level FlightAware ADS-B
Thu 05:42:00 PM 39.9130 -79.8080 53° Northeast 434 499 37,000  Level FlightAware ADS-B
Thu 05:42:36 PM 39.9560 -79.7320 54° Northeast 434 499 37,000  Level FlightAware ADS-B
Thu 05:43:13 PM 39.9990 -79.6570 53° Northeast 434 499 37,000  Level FlightAware ADS-B
Thu 05:43:47 PM 40.0400 -79.5830 54° Northeast 434 499 37,000  Level FlightAware ADS-B
Thu 05:44:22 PM 40.0820 -79.5100 53° Northeast 435 501 37,000  Level FlightAware ADS-B
Thu 05:44:58 PM 40.1260 -79.4320 54° Northeast 435 501 37,000  Level FlightAware ADS-B
Thu 05:45:30 PM 40.1640 -79.3640 54° Northeast 435 501 37,000  Level FlightAware ADS-B
Thu 05:46:07 PM 40.2060 -79.2890 54° Northeast 435 501 37,000  Level FlightAware ADS-B
Thu 05:46:43 PM 40.2490 -79.2120 54° Northeast 435 501 37,000  Level FlightAware ADS-B
Thu 05:47:19 PM 40.2910 -79.1360 54° Northeast 436 502 37,000  Level FlightAware ADS-B
Thu 05:47:51 PM 40.3300 -79.0670 53° Northeast 437 503 37,000  Level FlightAware ADS-B
Thu 05:48:26 PM 40.3720 -78.9910 54° Northeast 438 504 37,000  Level FlightAware ADS-B
Thu 05:49:02 PM 40.4150 -78.9130 54° Northeast 439 505 37,000  Level FlightAware ADS-B
Thu 05:49:34 PM 40.4530 -78.8440 54° Northeast 439 505 37,000  Level FlightAware ADS-B
Thu 05:50:10 PM 40.4960 -78.7670 54° Northeast 439 505 37,000  Level FlightAware ADS-B
Thu 05:50:48 PM 40.5410 -78.6850 54° Northeast 439 505 37,000  Level FlightAware ADS-B
Thu 05:51:28 PM 40.5870 -78.5990 55° Northeast 440 506 37,000  Level FlightAware ADS-B
Thu 05:52:00 PM 40.6270 -78.5270 54° Northeast 440 506 37,000  Level FlightAware ADS-B
Thu 05:52:53 PM 40.6850 -78.4210 54° Northeast 440 506 37,000  Level FlightAware ADS-B
Thu 05:53:28 PM 40.7250 -78.3470 54° Northeast 440 506 37,000  Level FlightAware ADS-B
Thu 05:54:04 PM 40.7730 -78.2580 55° Northeast 441 507 37,000  Level FlightAware ADS-B
Thu 05:54:42 PM 40.8150 -78.1810 54° Northeast 441 507 37,000  Level FlightAware ADS-B
Thu 05:55:18 PM 40.8590 -78.1000 54° Northeast 441 507 37,000  Level FlightAware ADS-B
Thu 05:56:03 PM 40.9090 -78.0040 55° Northeast 442 509 37,000  Level FlightAware ADS-B
Thu 05:56:33 PM 40.9440 -77.9310 58° Northeast 442 509 37,000  Level FlightAware ADS-B
Thu 05:57:05 PM 40.9760 -77.8580 60° Northeast 442 509 37,000  Level FlightAware ADS-B
Thu 05:57:45 PM 41.0140 -77.7740 59° Northeast 442 509 37,000  Level FlightAware ADS-B
Thu 05:58:28 PM 41.0650 -77.6580 60° Northeast 441 507 37,000  Level FlightAware ADS-B
Thu 05:58:58 PM 41.0910 -77.6000 59° Northeast 437 503 37,000  Level FlightAware ADS-B
Thu 05:59:41 PM 41.1400 -77.4890 60° Northeast 440 506 37,000  Level FlightAware ADS-B
Thu 06:00:14 PM 41.1710 -77.4190 60° Northeast 440 506 37,000  Level FlightAware ADS-B
Thu 06:00:50 PM 41.2080 -77.3340 60° Northeast 439 505 37,000  Level FlightAware ADS-B
Thu 06:01:20 PM 41.2380 -77.2650 60° Northeast 438 504 37,000  Level FlightAware ADS-B
Thu 06:01:58 PM 41.2780 -77.1740 60° Northeast 438 504 37,000  Level FlightAware ADS-B
Thu 06:02:31 PM 41.3080 -77.1040 60° Northeast 438 504 37,000  Level FlightAware ADS-B
Thu 06:03:08 PM 41.3490 -77.0110 60° Northeast 437 503 37,000  Level FlightAware ADS-B
Thu 06:03:42 PM 41.3830 -76.9330 60° Northeast 436 502 37,000  Level FlightAware ADS-B
Thu 06:04:16 PM 41.4150 -76.8590 60° Northeast 437 503 37,000  Level FlightAware ADS-B
Thu 06:04:52 PM 41.4480 -76.7810 61° Northeast 437 503 37,000  Level FlightAware ADS-B
Thu 06:05:24 PM 41.4860 -76.6940 60° Northeast 436 502 37,000  Level FlightAware ADS-B
Thu 06:06:02 PM 41.5240 -76.6050 60° Northeast 437 503 37,000  Level FlightAware ADS-B
Thu 06:06:37 PM 41.5590 -76.5210 61° Northeast 437 503 37,000  Level FlightAware ADS-B
Thu 06:07:15 PM 41.5980 -76.4320 60° Northeast 438 504 37,000  Level FlightAware ADS-B
Thu 06:07:51 PM 41.6330 -76.3490 61° Northeast 439 505 37,000  Level FlightAware ADS-B
Thu 06:08:24 PM 41.6660 -76.2690 61° Northeast 439 505 37,000  Level FlightAware ADS-B
Thu 06:08:59 PM 41.7000 -76.1890 60° Northeast 440 506 37,000  Level FlightAware ADS-B
Thu 06:09:33 PM 41.7350 -76.1060 61° Northeast 441 507 37,000  Level FlightAware ADS-B
Thu 06:10:12 PM 41.7710 -76.0210 60° Northeast 442 509 37,000  Level FlightAware ADS-B
Thu 06:10:47 PM 41.8070 -75.9360 60° Northeast 442 509 37,000  Level FlightAware ADS-B
Thu 06:11:23 PM 41.8330 -75.8710 62° Northeast 442 509 37,000  Level FlightAware ADS-B
Thu 06:11:55 PM 41.8770 -75.7670 60° Northeast 443 510 37,000  Level FlightAware ADS-B
Thu 06:12:29 PM 41.9110 -75.6850 61° Northeast 443 510 37,000  Level FlightAware ADS-B
Thu 06:13:07 PM 41.9480 -75.5950 61° Northeast 444 511 37,000  Level FlightAware ADS-B
Thu 06:13:39 PM 41.9800 -75.5190 60° Northeast 444 511 37,000  Level FlightAware ADS-B
Thu 06:14:15 PM 42.0160 -75.4320 61° Northeast 445 512 37,000  Level FlightAware ADS-B
Thu 06:14:51 PM 42.0520 -75.3430 61° Northeast 445 512 37,000  Level FlightAware ADS-B
Thu 06:15:25 PM 42.0840 -75.2600 63° Northeast 447 514 37,000  Level FlightAware ADS-B
Thu 06:16:03 PM 42.1110 -75.1620 70° East 449 517 37,000  Level FlightAware ADS-B
Thu 06:16:33 PM 42.1310 -75.0850 71° East 449 517 37,000 -493 Level FlightAware ADS-B
Thu 06:17:16 PM 42.1560 -74.9850 71° East 447 514 36,400 -1,116 Descending FlightAware ADS-B
Thu 06:17:59 PM 42.1870 -74.8630 71° East 445 512 35,400 -1,462 Descending FlightAware ADS-B
Thu 06:18:34 PM 42.2100 -74.7690 72° East 431 496 34,500 -2,057 Descending FlightAware ADS-B
Thu 06:19:09 PM 42.2320 -74.6830 71° East 435 501 33,000 -2,167 Descending FlightAware ADS-B
Thu 06:19:46 PM 42.2560 -74.5870 71° East 424 488 31,900 -2,301 Descending FlightAware ADS-B
Thu 06:20:22 PM 42.2780 -74.4940 72° East 429 494 30,200 -2,382 Descending FlightAware ADS-B
Thu 06:20:54 PM 42.2990 -74.4110 71° East 437 503 29,200 -1,029 Descending FlightAware ADS-B
Thu 06:21:32 PM 42.3230 -74.3110 72° East 452 520 29,000 -343 Descending FlightAware ADS-B
Thu 06:22:04 PM 42.3440 -74.2240 72° East 453 521 28,800 -909 Descending FlightAware ADS-B
Thu 06:22:38 PM 42.3650 -74.1370 72° East 443 510 28,000 -1,478 Descending FlightAware ADS-B
Thu 06:23:13 PM 42.3860 -74.0500 72° East 439 505 27,100 -1,479 Descending FlightAware ADS-B
Thu 06:23:51 PM 42.4090 -73.9550 72° East 429 494 26,200 -1,579 Descending FlightAware ADS-B
Thu 06:24:29 PM 42.4350 -73.8480 72° East 423 487 25,100 -1,615 Descending FlightAware ADS-B
Thu 06:25:09 PM 42.4580 -73.7500 72° East 416 479 24,100 -1,479 Descending FlightAware ADS-B
Thu 06:25:42 PM 42.4780 -73.6680 72° East 409 471 23,300 -971 Descending FlightAware ADS-B
Thu 06:26:17 PM 42.4980 -73.5830 72° East 404 465 23,000 -583 Descending FlightAware ADS-B
Thu 06:26:54 PM 42.5190 -73.4930 72° East 401 461 22,600 -1,217 Descending FlightAware ADS-B
Thu 06:27:26 PM 42.5360 -73.4200 72° East 395 455 21,600 -2,118 Descending FlightAware ADS-B
Thu 06:28:02 PM 42.5560 -73.3340 72° East 391 450 20,200 -2,118 Descending FlightAware ADS-B
Thu 06:28:34 PM 42.5740 -73.2600 72° East 386 444 19,200 -1,091 Descending FlightAware ADS-B
Thu 06:29:08 PM 42.5920 -73.1810 73° East 383 441 19,000 -169 Descending FlightAware ADS-B
Thu 06:29:45 PM 42.6120 -73.0950 72° East 386 444 19,000  Level FlightAware ADS-B
Thu 06:30:22 PM 42.6320 -73.0090 72° East 387 445 19,000  Level FlightAware ADS-B
Thu 06:30:57 PM 42.6500 -72.9290 73° East 385 443 19,000 -174 Level FlightAware ADS-B
Thu 06:31:31 PM 42.6670 -72.8510 73° East 384 442 18,800 -1,059 Descending FlightAware ADS-B
Thu 06:32:05 PM 42.6800 -72.7720 77° East 376 433 17,800 -1,742 Descending FlightAware ADS-B
Thu 06:32:33 PM 42.6779 -72.7837 256° West 369 425 17,000 -1,917 Descending FlightAware ADS-B (KSNC)
Thu 06:33:17 PM 42.7070 -72.6090 77° East 363 418 15,500 -1,899 Descending FlightAware ADS-B
Thu 06:33:52 PM 42.7200 -72.5320 77° East 356 410 14,500 -1,800 Descending FlightAware ADS-B
Thu 06:34:27 PM 42.7330 -72.4570 77° East 349 402 13,400 -1,778 Descending FlightAware ADS-B
Thu 06:34:46 PM 42.7402 -72.4168 76° East 346 398 12,900 -1,478 Descending FlightAware ADS-B (KSNC)
Thu 06:35:36 PM 42.7580 -72.3120 77° East 328 377 11,700 -1,172 Descending FlightAware ADS-B
Thu 06:36:13 PM 42.7700 -72.2400 77° East 303 349 11,200 -771 Descending FlightAware ADS-B
Thu 06:36:46 PM 42.7800 -72.1820 77° East 284 327 10,800 -957 Descending FlightAware ADS-B
Thu 06:37:22 PM 42.7900 -72.1200 78° East 275 316 10,100 -1,286 Descending FlightAware ADS-B
Thu 06:37:42 PM 42.7960 -72.0870 76° East 275 316 9,600 -1,385 Descending FlightAware ADS-B
Thu 06:38:01 PM 42.8010 -72.0540 78° East 275 316 9,200 -837 Descending FlightAware ADS-B
Thu 06:38:25 PM 42.8080 -72.0140 77° East 272 313 9,000 -486 Descending FlightAware ADS-B
Thu 06:38:38 PM 42.8110 -71.9920 79° East 269 310 8,900 -1,091 Descending FlightAware ADS-B
Thu 06:38:58 PM 42.8160 -71.9590 78° East 267 307 8,400 -1,500 Descending FlightAware ADS-B
Thu 06:39:22 PM 42.8130 -71.9190 96° East 267 307 7,800 -1,733 Descending FlightAware ADS-B
Thu 06:39:43 PM 42.8100 -71.8850 97° East 265 305 7,100 -1,800 Descending FlightAware ADS-B
Thu 06:40:02 PM 42.8080 -71.8530 95° East 263 303 6,600 -1,714 Descending FlightAware ADS-B
Thu 06:40:18 PM 42.8050 -71.8280 99° East 260 299 6,100 -1,737 Descending FlightAware ADS-B
Thu 06:40:40 PM 42.8020 -71.7920 96° East 254 292 5,500 -1,286 Descending FlightAware ADS-B
Thu 06:41:00 PM 42.7990 -71.7610 98° East 241 277 5,200 -1,350 Descending FlightAware ADS-B
Thu 06:41:20 PM 42.7960 -71.7310 98° East 242 278 4,600 -1,610 Descending FlightAware ADS-B
Thu 06:41:41 PM 42.7930 -71.7020 98° East 242 278 4,100 -1,500 Descending FlightAware ADS-B
Thu 06:41:56 PM 42.7910 -71.6770 96° East 239 275 3,700 -1,235 Descending FlightAware ADS-B
Thu 06:42:15 PM 42.7880 -71.6480 98° East 228 262 3,400 -878 Descending FlightAware ADS-B
Thu 06:42:37 PM 42.7850 -71.6180 98° East 223 257 3,100 -714 Descending FlightAware ADS-B
Thu 06:42:57 PM 42.7830 -71.5910 96° East 222 255 2,900 -279 Descending FlightAware ADS-B
Thu 06:43:20 PM 42.7800 -71.5580 97° East 224 258 2,900  Level FlightAware ADS-B
Thu 06:43:33 PM 42.7790 -71.5400 94° East 224 258 2,900  Level FlightAware ADS-B
Thu 06:43:53 PM 42.7760 -71.5120 98° East 225 259 2,900  Level FlightAware ADS-B
Thu 06:44:08 PM 42.7750 -71.4910 94° East 226 260 2,900  Level FlightAware ADS-B
Thu 06:44:42 PM 42.7800 -71.4440 82° East 209 241 2,900  Level FlightAware ADS-B
Thu 06:44:53 PM 42.7830 -71.4310 73° East 196 226 2,900  Level FlightAware ADS-B
Thu 06:45:17 PM 42.7890 -71.4060 72° East 167 192 2,900 -486 Level FlightAware ADS-B
Thu 06:45:30 PM 42.7930 -71.3940 66° East 158 182 2,600 -1,200 Descending FlightAware ADS-B
Thu 06:45:37 PM 42.7970 -71.3890 43° Northeast 154 177 2,500 -750 Descending FlightAware ADS-B
Thu 06:45:54 PM 42.8060 -71.3790 39° Northeast 142 163 2,300 -522 Descending FlightAware ADS-B
Thu 06:46:00 PM 42.8100 -71.3770 20° North 146 168 2,300  Level FlightAware ADS-B
Thu 06:46:20 PM 42.8230 -71.3720 16° North 147 169 2,300 -439 Level FlightAware ADS-B
Thu 06:46:41 PM 42.8350 -71.3760 346° North 139 160 2,000 -878 Descending FlightAware ADS-B
Thu 06:47:01 PM 42.8470 -71.3830 337° Northwest 132 152 1,700 -750 Descending FlightAware ADS-B
Thu 06:47:21 PM 42.8590 -71.3910 334° Northwest 131 151 1,500 -667 Descending FlightAware ADS-B
Thu 06:47:46 PM 42.8740 -71.4000 336° Northwest 139 160 1,200 -667 Descending FlightAware ADS-B
Thu 06:48:06 PM 42.8850 -71.4060 338° Northwest 138 159 1,000 -720 Descending FlightAware ADS-B
Thu 06:48:36 PM 42.9020 -71.4160 337° Northwest 139 160 600 -800 Descending FlightAware ADS-B
Thu 06:48:51 PM 42.9110 -71.4220 334° Northwest 138 159 400 -414 Descending FlightAware ADS-B
Thu 06:49:34 PM 42.9350 -71.4360 337° Northwest 140 161 200 4,691 Descending FlightAware ADS-B
Thu 06:50:41 PM 42.9650 -71.4583 337° Northwest 134 154 9,000 7,881 Climbing Boston Center

Login

Don't have an account? Register now (free) for customized features, flight alerts, and more!